Time;durP1;ratioP1;P1;durP2;ratioP2;P2;SDS_P1;SDS_P2;PMS_P1;PMS_P2;Temp;Humidity;BMP_temperature;BMP_pressure;BME280_temperature;BME280_humidity;BME280_pressure;Samples;Min_cycle;Max_cycle;Signal;HPM_P1;HPM_P2
2021/01/14 00:01:23;;;;;;;35.45;17.15;;;;;;;-0.40;90.51;97801.77;4195270;82;21334;-89
2021/01/14 00:07:24;;;;;;;45.80;18.97;;;;;;;-0.38;90.43;97788.79;4205501;82;21683;-88
2021/01/14 00:13:26;;;;;;;42.40;18.48;;;;;;;-0.38;90.49;97790.69;4200520;82;21181;-89
2021/01/14 00:19:27;;;;;;;39.27;17.62;;;;;;;-0.37;90.47;97786.32;4205923;82;21213;-89
2021/01/14 00:25:29;;;;;;;42.45;18.70;;;;;;;-0.37;90.58;97774.77;4191980;82;21181;-88
2021/01/14 00:31:31;;;;;;;32.80;15.83;;;;;;;-0.38;90.65;97771.31;4207437;82;21307;-87
2021/01/14 00:37:50;;;;;;;25.77;13.57;;;;;;;-0.39;90.65;97756.83;4207062;82;21193;-88
2021/01/14 00:43:53;;;;;;;23.45;10.88;;;;;;;-0.42;90.60;97761.53;4194149;82;21236;-89
2021/01/14 00:49:54;;;;;;;18.70;9.90;;;;;;;-0.43;90.57;97754.05;4207197;82;21197;-87
2021/01/14 00:55:56;;;;;;;22.93;11.13;;;;;;;-0.45;90.62;97746.86;4214558;82;21295;-88
2021/01/14 01:01:57;;;;;;;20.57;10.23;;;;;;;-0.47;90.55;97747.74;4202165;82;21366;-87
2021/01/14 01:07:59;;;;;;;21.37;10.83;;;;;;;-0.49;90.54;97734.42;4198375;82;21193;-87
2021/01/14 01:14:03;;;;;;;20.83;10.70;;;;;;;-0.53;90.69;97729.47;4195495;82;21324;-87
2021/01/14 01:20:06;;;;;;;26.67;10.33;;;;;;;-0.61;90.55;97723.08;4203134;82;21225;-88
2021/01/14 01:26:10;;;;;;;18.47;9.33;;;;;;;-0.60;90.67;97724.66;4197422;82;21237;-88
2021/01/14 01:32:11;;;;;;;20.50;9.67;;;;;;;-0.61;90.62;97713.67;4205169;82;21319;-87
2021/01/14 01:38:13;;;;;;;22.00;10.13;;;;;;;-0.62;90.62;97707.28;4200668;82;21209;-87
2021/01/14 01:44:15;;;;;;;22.98;11.63;;;;;;;-0.67;90.53;97698.87;4200110;82;21645;-87
2021/01/14 01:50:20;;;;;;;25.00;11.03;;;;;;;-0.68;90.59;97694.63;4201726;82;21169;-87
2021/01/14 01:56:22;;;;;;;21.13;11.33;;;;;;;-0.70;90.50;97686.66;4200879;82;21340;-88
2021/01/14 02:02:27;;;;;;;23.97;11.37;;;;;;;-0.64;90.66;97696.10;4200422;82;21229;-87
2021/01/14 02:08:58;;;;;;;22.43;10.63;;;;;;;-0.59;90.60;97697.20;4201431;82;21216;-87
2021/01/14 02:15:01;;;;;;;22.80;10.53;;;;;;;-0.61;90.36;97698.88;4200901;82;21153;-87
2021/01/14 02:21:06;;;;;;;18.27;9.53;;;;;;;-0.60;90.53;97696.99;4197000;82;21145;-87
2021/01/14 02:27:09;;;;;;;19.57;11.27;;;;;;;-0.57;90.58;97691.74;4156379;83;21185;-87
2021/01/14 02:33:12;;;;;;;36.87;17.00;;;;;;;-0.57;90.56;97682.34;4184373;83;21180;-88
2021/01/14 02:39:14;;;;;;;76.60;35.63;;;;;;;-0.61;90.60;97689.48;4149143;84;21240;-87
2021/01/14 02:45:15;;;;;;;39.37;20.80;;;;;;;-0.60;90.75;97683.00;4191092;83;21154;-88
2021/01/14 02:51:42;;;;;;;59.63;30.03;;;;;;;-0.55;90.69;97679.31;4169182;83;21789;-87
2021/01/14 02:57:45;;;;;;;42.75;21.10;;;;;;;-0.59;90.50;97674.36;4158998;83;21221;-87
2021/01/14 03:03:46;;;;;;;81.27;34.73;;;;;;;-0.59;90.80;97670.33;4160089;83;21194;-86
2021/01/14 03:09:47;;;;;;;78.03;33.40;;;;;;;-0.52;90.90;97677.30;4167670;83;21166;-86
2021/01/14 03:15:49;;;;;;;62.80;29.03;;;;;;;-0.45;90.72;97681.55;4162897;83;21174;-86
2021/01/14 03:21:51;;;;;;;94.97;46.83;;;;;;;-0.41;90.71;97680.53;4208065;83;21601;-86
2021/01/14 03:27:52;;;;;;;65.77;31.53;;;;;;;-0.39;90.70;97674.83;4247061;83;21303;-86
2021/01/14 03:33:54;;;;;;;65.10;30.23;;;;;;;-0.36;90.65;97678.98;4245444;83;21544;-85
2021/01/14 03:39:55;;;;;;;52.90;28.20;;;;;;;-0.33;90.71;97672.16;4245154;83;21174;-86
2021/01/14 03:45:57;;;;;;;40.63;21.57;;;;;;;-0.36;90.50;97666.88;4240399;83;21217;-86
2021/01/14 03:51:58;;;;;;;36.60;18.20;;;;;;;-0.38;90.50;97663.77;4246762;83;21204;-86
2021/01/14 03:57:59;;;;;;;17.97;9.03;;;;;;;-0.40;90.51;97657.13;4240089;83;21664;-86
2021/01/14 04:04:01;;;;;;;21.67;10.40;;;;;;;-0.46;90.63;97659.83;4245008;82;21751;-86
2021/01/14 04:10:04;;;;;;;17.53;9.60;;;;;;;-0.46;90.78;97656.59;4247151;83;21570;-85
2021/01/14 04:16:12;;;;;;;20.07;11.77;;;;;;;-0.46;90.89;97657.93;4246498;83;21200;-85
2021/01/14 04:22:14;;;;;;;16.50;9.27;;;;;;;-0.47;90.81;97659.03;4227480;82;21796;-85
2021/01/14 04:28:16;;;;;;;23.77;12.07;;;;;;;-0.47;90.83;97664.41;4210827;83;21208;-85
2021/01/14 04:34:18;;;;;;;24.13;14.30;;;;;;;-0.53;90.76;97659.58;4226964;82;21626;-85
2021/01/14 04:40:19;;;;;;;25.53;13.40;;;;;;;-0.56;90.87;97662.39;4225323;82;21873;-85
2021/01/14 04:46:21;;;;;;;23.40;12.73;;;;;;;-0.60;91.02;97662.84;4219468;82;21189;-85
2021/01/14 04:52:26;;;;;;;19.73;12.30;;;;;;;-0.55;91.04;97663.19;4216853;82;21640;-86
2021/01/14 04:58:29;;;;;;;22.77;11.63;;;;;;;-0.56;91.07;97665.62;4214704;82;21226;-86
2021/01/14 05:04:33;;;;;;;19.00;9.13;;;;;;;-0.53;91.00;97667.64;4219734;82;22379;-86
2021/01/14 05:10:38;;;;;;;16.70;10.03;;;;;;;-0.54;91.04;97667.43;4226256;82;21249;-86
2021/01/14 05:16:40;;;;;;;21.57;11.93;;;;;;;-0.53;91.08;97665.75;4229803;82;21170;-86
2021/01/14 05:22:44;;;;;;;17.53;9.23;;;;;;;-0.52;90.96;97660.59;4217106;82;21594;-87
2021/01/14 05:28:45;;;;;;;18.30;9.83;;;;;;;-0.49;91.08;97663.98;4207875;83;21682;-87
2021/01/14 05:34:47;;;;;;;19.47;10.83;;;;;;;-0.51;90.97;97670.80;4147153;84;21216;-87
2021/01/14 05:47:24;;;;;;;25.03;13.87;;;;;;;-0.54;91.14;97687.04;4232579;82;21154;-86
2021/01/14 05:53:27;;;;;;;29.00;16.07;;;;;;;-0.50;91.07;97684.48;4223402;82;21769;-87
2021/01/14 05:59:33;;;;;;;27.03;14.73;;;;;;;-0.49;90.97;97690.86;4217793;82;22159;-86
2021/01/14 06:05:35;;;;;;;24.15;14.25;;;;;;;-0.46;91.05;97704.19;4220621;82;21177;-86
2021/01/14 06:11:37;;;;;;;27.43;14.13;;;;;;;-0.40;91.12;97706.33;4203344;82;21197;-86
2021/01/14 06:17:39;;;;;;;25.30;15.03;;;;;;;-0.41;90.80;97716.07;4232789;82;21619;-86
2021/01/14 06:23:46;;;;;;;33.30;18.87;;;;;;;-0.49;90.88;97712.37;4241851;81;21204;-86
2021/01/14 06:29:54;;;;;;;34.33;18.50;;;;;;;-0.52;91.00;97721.66;4279799;81;21442;-85
2021/01/14 06:36:08;;;;;;;35.77;20.33;;;;;;;-0.51;91.12;97728.59;4279246;81;21633;-86
2021/01/14 06:42:26;;;;;;;34.50;20.53;;;;;;;-0.53;91.13;97742.36;4273456;81;21221;-85
2021/01/14 06:48:31;;;;;;;33.53;19.63;;;;;;;-0.52;91.16;97743.92;4280630;81;21137;-86
2021/01/14 06:54:38;;;;;;;37.73;19.33;;;;;;;-0.51;91.20;97755.47;4273598;81;21625;-86
2021/01/14 07:00:48;;;;;;;37.40;18.67;;;;;;;-0.53;91.23;97761.17;4279529;81;21192;-85
2021/01/14 07:06:55;;;;;;;34.03;18.27;;;;;;;-0.51;91.23;97776.97;4269129;81;21159;-86
2021/01/14 07:12:59;;;;;;;35.27;18.67;;;;;;;-0.54;91.22;97787.05;4266542;81;21185;-86
2021/01/14 07:19:01;;;;;;;39.47;17.97;;;;;;;-0.54;91.26;97798.59;4272516;81;21307;-85
2021/01/14 07:25:03;;;;;;;41.37;19.90;;;;;;;-0.55;91.17;97805.07;4283012;81;21638;-85
2021/01/14 07:31:21;;;;;;;44.27;21.20;;;;;;;-0.55;91.34;97811.02;4265998;81;21232;-86
2021/01/14 07:37:28;;;;;;;43.20;21.17;;;;;;;-0.48;91.37;97831.42;4239625;82;21706;-86
2021/01/14 07:43:31;;;;;;;40.27;20.13;;;;;;;-0.44;91.29;97833.69;4235653;82;21203;-86
2021/01/14 07:49:36;;;;;;;48.63;21.83;;;;;;;-0.40;91.33;97839.41;4211637;82;21306;-86
2021/01/14 07:55:38;;;;;;;42.23;22.07;;;;;;;-0.38;91.31;97842.56;4205847;82;21606;-86
2021/01/14 08:02:08;;;;;;;40.27;21.33;;;;;;;-0.29;91.26;97849.19;4203683;82;21209;-86
2021/01/14 08:08:38;;;;;;;41.80;23.70;;;;;;;-0.24;91.24;97858.39;4204965;82;21354;-86
2021/01/14 08:14:39;;;;;;;43.80;23.55;;;;;;;-0.19;91.26;97875.67;4204539;82;21745;-87
2021/01/14 08:20:41;;;;;;;36.03;21.40;;;;;;;-0.14;91.22;97881.62;4201566;82;21196;-86
2021/01/14 08:26:57;;;;;;;45.03;22.13;;;;;;;-0.10;91.09;97891.96;4198822;83;21194;-86
2021/01/14 08:33:05;;;;;;;44.00;23.97;;;;;;;-0.07;91.05;97900.71;4211225;83;21157;-86
2021/01/14 08:39:09;;;;;;;47.30;26.25;;;;;;;-0.04;91.00;97910.81;4139724;84;21181;-87
2021/01/14 08:45:15;;;;;;;43.50;26.05;;;;;;;-0.01;91.08;97918.21;4182313;83;21240;-86
2021/01/14 08:51:19;;;;;;;46.50;25.02;;;;;;;0.06;91.15;97932.47;4164639;83;21158;-86
2021/01/14 08:57:24;;;;;;;50.90;26.63;;;;;;;0.14;91.05;97942.37;4164301;83;21209;-86
2021/01/14 09:03:26;;;;;;;47.70;26.63;;;;;;;0.20;91.00;97941.59;4169343;83;21376;-87
2021/01/14 09:09:28;;;;;;;49.38;27.17;;;;;;;0.23;90.81;97963.25;4154569;83;21343;-86
2021/01/14 09:15:29;;;;;;;49.63;27.40;;;;;;;0.18;90.82;97972.87;4188690;83;21181;-86
2021/01/14 09:21:35;;;;;;;42.90;25.57;;;;;;;0.18;90.87;97978.80;4181131;83;21479;-86
2021/01/14 09:27:36;;;;;;;44.53;25.17;;;;;;;0.24;90.87;97986.89;4155935;84;21196;-86
2021/01/14 09:33:40;;;;;;;49.53;25.12;;;;;;;0.25;90.77;97993.28;4171061;84;21204;-86
2021/01/14 09:39:44;;;;;;;41.08;22.75;;;;;;;0.24;90.72;98005.19;4162366;84;21198;-86
2021/01/14 09:45:47;;;;;;;47.30;23.27;;;;;;;0.24;90.70;98007.08;4231121;83;21202;-86
2021/01/14 09:51:51;;;;;;;42.50;23.00;;;;;;;0.26;90.72;98017.76;4228164;83;21166;-86
2021/01/14 09:57:56;;;;;;;39.80;21.82;;;;;;;0.25;90.73;98018.86;4225186;83;21214;-87
2021/01/14 10:04:05;;;;;;;42.63;21.83;;;;;;;0.27;90.71;98021.25;4224997;83;21205;-87
2021/01/14 10:10:08;;;;;;;40.73;21.23;;;;;;;0.25;90.76;98029.63;4227821;83;21643;-86
2021/01/14 10:16:10;;;;;;;42.75;19.87;;;;;;;0.26;90.77;98035.80;4228215;83;21336;-85
2021/01/14 10:22:12;;;;;;;36.63;19.23;;;;;;;0.24;90.63;98044.76;4226851;83;21351;-85
2021/01/14 10:28:13;;;;;;;32.93;18.15;;;;;;;0.16;90.66;98045.06;4263482;81;21216;-86
2021/01/14 10:34:16;;;;;;;37.78;20.30;;;;;;;0.19;90.68;98053.06;4265935;81;21370;-87
2021/01/14 10:40:20;;;;;;;33.80;20.10;;;;;;;0.18;90.71;98053.61;4260781;81;21327;-85
2021/01/14 10:46:24;;;;;;;38.42;20.43;;;;;;;0.21;90.76;98066.95;4263443;81;21185;-85
2021/01/14 10:52:26;;;;;;;38.60;20.37;;;;;;;0.20;90.67;98073.47;4262085;81;21206;-85
2021/01/14 10:58:27;;;;;;;37.47;19.97;;;;;;;0.20;90.80;98086.38;4259926;81;21210;-85
2021/01/14 11:04:29;;;;;;;36.45;19.92;;;;;;;0.24;90.76;98087.28;4266778;81;21224;-85
2021/01/14 11:10:31;;;;;;;35.90;20.57;;;;;;;0.31;90.76;98088.09;4276321;81;21145;-85
2021/01/14 11:16:32;;;;;;;36.45;21.62;;;;;;;0.37;90.85;98102.38;4260544;81;21636;-86
2021/01/14 11:22:34;;;;;;;38.37;23.13;;;;;;;0.37;90.79;98097.00;4266475;81;21529;-85
2021/01/14 11:28:41;;;;;;;39.03;22.40;;;;;;;0.40;90.89;98097.68;4259553;81;21677;-86
2021/01/14 11:34:43;;;;;;;40.90;21.40;;;;;;;0.41;90.71;98101.17;4265412;81;21359;-86
2021/01/14 11:40:48;;;;;;;33.83;20.50;;;;;;;0.37;90.67;98109.11;4256890;81;21394;-86
2021/01/14 11:46:49;;;;;;;37.15;21.27;;;;;;;0.38;90.68;98112.57;4264768;81;21351;-86
2021/01/14 11:52:51;;;;;;;42.15;23.02;;;;;;;0.41;90.76;98121.36;4281059;81;21333;-86
2021/01/14 11:58:52;;;;;;;43.02;23.57;;;;;;;0.43;90.74;98119.91;4269705;81;21173;-86
2021/01/14 12:04:53;;;;;;;46.17;22.67;;;;;;;0.39;90.72;98128.97;4267073;81;21208;-86
2021/01/14 12:10:55;;;;;;;38.55;21.75;;;;;;;0.28;90.56;98141.25;4273632;81;21342;-86
2021/01/14 12:16:57;;;;;;;41.57;23.37;;;;;;;0.17;90.62;98147.59;4268173;81;21290;-85
2021/01/14 12:22:58;;;;;;;57.50;29.63;;;;;;;0.13;90.71;98151.23;4261049;81;21820;-85
2021/01/14 12:28:59;;;;;;;48.25;26.68;;;;;;;0.12;90.85;98159.89;4220328;82;21206;-85
2021/01/14 12:35:02;;;;;;;60.13;31.33;;;;;;;0.13;90.84;98172.22;4214021;82;21410;-86
2021/01/14 12:41:04;;;;;;;42.03;24.50;;;;;;;0.11;90.88;98187.89;4219543;82;21814;-85
2021/01/14 12:47:06;;;;;;;41.80;22.00;;;;;;;0.07;90.99;98207.71;4222533;82;21185;-85
2021/01/14 12:53:07;;;;;;;40.73;20.77;;;;;;;0.12;91.11;98219.09;4205654;82;21193;-85
2021/01/14 12:59:10;;;;;;;57.70;23.00;;;;;;;0.11;91.09;98234.22;4227549;82;21201;-85
2021/01/14 13:05:12;;;;;;;35.98;16.80;;;;;;;0.18;91.19;98240.66;4220450;82;21232;-86
2021/01/14 13:11:13;;;;;;;35.63;17.23;;;;;;;0.22;90.84;98246.96;4218187;82;21335;-85
2021/01/14 13:17:15;;;;;;;35.90;17.77;;;;;;;0.29;90.82;98259.37;4228641;82;21804;-85
2021/01/14 13:23:17;;;;;;;33.15;18.32;;;;;;;0.28;90.49;98271.27;4210975;82;21753;-85
2021/01/14 13:29:21;;;;;;;32.85;16.93;;;;;;;0.16;90.69;98289.98;4194911;82;22510;-85
2021/01/14 13:35:23;;;;;;;43.58;23.07;;;;;;;0.16;90.69;98289.98;4209073;82;21221;-85
2021/01/14 13:41:25;;;;;;;41.73;22.00;;;;;;;0.21;90.64;98303.81;4211384;82;21421;-85
2021/01/14 13:47:27;;;;;;;45.20;19.42;;;;;;;0.23;90.56;98315.85;4219274;82;21607;-85
2021/01/14 13:53:28;;;;;;;38.42;15.20;;;;;;;0.19;90.33;98336.44;4220438;82;21228;-85
2021/01/14 13:59:32;;;;;;;22.57;11.70;;;;;;;0.10;89.67;98347.80;4219775;82;21258;-85
2021/01/14 14:05:33;;;;;;;30.13;12.73;;;;;;;-0.02;89.57;98350.38;4229462;82;21193;-84
2021/01/14 14:11:36;;;;;;;33.83;13.58;;;;;;;-0.11;89.30;98356.34;4224255;82;22120;-84
2021/01/14 14:17:37;;;;;;;23.12;11.93;;;;;;;-0.05;89.62;98369.86;4202503;82;21200;-84
2021/01/14 14:23:40;;;;;;;24.32;12.37;;;;;;;-0.04;89.55;98384.87;4230368;82;21252;-84
2021/01/14 14:29:42;;;;;;;24.63;12.37;;;;;;;-0.12;89.47;98394.55;4272174;81;21244;-84
2021/01/14 14:35:43;;;;;;;35.00;13.70;;;;;;;-0.18;89.47;98399.87;4272321;81;21185;-84
2021/01/14 14:41:50;;;;;;;31.90;13.13;;;;;;;-0.25;89.47;98414.34;4237582;82;21228;-84
2021/01/14 14:47:52;;;;;;;33.33;13.73;;;;;;;-0.26;89.15;98417.36;4248602;82;21289;-84
2021/01/14 14:53:54;;;;;;;27.17;12.88;;;;;;;-0.30;89.45;98429.30;4236716;82;21333;-84
2021/01/14 14:59:55;;;;;;;28.30;13.77;;;;;;;-0.25;89.59;98433.75;4233259;82;21850;-85
2021/01/14 15:05:57;;;;;;;34.17;15.67;;;;;;;-0.26;89.30;98446.40;4266432;81;21828;-84
2021/01/14 15:11:58;;;;;;;38.23;18.67;;;;;;;-0.26;89.43;98449.63;4274566;81;21234;-84
2021/01/14 15:18:00;;;;;;;35.87;16.83;;;;;;;-0.26;89.41;98449.09;4269534;81;21157;-84
2021/01/14 15:24:02;;;;;;;48.67;19.97;;;;;;;-0.23;89.42;98461.09;4271295;81;21387;-83
2021/01/14 15:30:05;;;;;;;41.13;18.85;;;;;;;-0.24;89.37;98471.63;4214069;82;21205;-83
2021/01/14 15:36:07;;;;;;;41.95;19.20;;;;;;;-0.27;89.21;98478.42;4206475;82;21194;-83
2021/01/14 15:42:12;;;;;;;36.57;18.07;;;;;;;-0.28;89.09;98488.15;4222125;82;21208;-83
2021/01/14 15:48:14;;;;;;;44.63;21.20;;;;;;;-0.33;89.22;98489.67;4224720;82;21221;-83
2021/01/14 15:54:15;;;;;;;57.10;23.10;;;;;;;-0.36;89.16;98504.53;4230536;82;21455;-83
2021/01/14 16:00:18;;;;;;;50.97;23.80;;;;;;;-0.41;89.23;98514.09;4200813;83;21226;-83
2021/01/14 16:06:20;;;;;;;46.30;23.00;;;;;;;-0.43;89.28;98520.90;4115364;84;21242;-83
2021/01/14 16:12:21;;;;;;;56.07;25.33;;;;;;;-0.43;89.31;98526.28;4200944;83;21652;-83
2021/01/14 16:18:22;;;;;;;49.10;23.43;;;;;;;-0.44;89.36;98539.49;4226983;82;21227;-84
2021/01/14 16:24:26;;;;;;;54.48;25.23;;;;;;;-0.50;89.21;98548.81;4208551;83;21380;-83
2021/01/14 16:30:27;;;;;;;52.97;23.30;;;;;;;-0.53;89.29;98555.59;4208099;82;21236;-83
2021/01/14 16:36:28;;;;;;;52.98;25.68;;;;;;;-0.54;89.23;98564.78;4196565;82;21212;-84
2021/01/14 16:42:30;;;;;;;61.87;29.93;;;;;;;-0.54;89.30;98566.13;4163361;82;21209;-85
2021/01/14 16:48:32;;;;;;;66.87;28.95;;;;;;;-0.60;89.32;98576.78;4196985;82;21386;-84
2021/01/14 16:54:34;;;;;;;61.07;28.03;;;;;;;-0.61;89.23;98588.63;4196787;82;21655;-85
2021/01/14 17:00:37;;;;;;;65.97;31.17;;;;;;;-0.59;89.44;98595.03;4214735;82;21390;-85
2021/01/14 17:06:40;;;;;;;74.70;31.73;;;;;;;-0.63;89.32;98594.88;4204870;82;21339;-84
2021/01/14 17:12:41;;;;;;;64.87;29.30;;;;;;;-0.65;89.38;98594.94;4205172;82;21204;-85
2021/01/14 17:18:45;;;;;;;63.80;28.87;;;;;;;-0.66;89.35;98598.73;4194933;82;21737;-85
2021/01/14 17:24:47;;;;;;;62.37;28.77;;;;;;;-0.66;89.47;98606.80;4201469;81;21689;-85
2021/01/14 17:30:48;;;;;;;61.67;27.80;;;;;;;-0.70;89.44;98606.63;4180724;83;21216;-85
2021/01/14 17:36:50;;;;;;;64.20;27.63;;;;;;;-0.75;89.44;98608.67;4190935;83;21224;-85
2021/01/14 17:42:54;;;;;;;64.90;28.23;;;;;;;-0.76;89.52;98609.22;4174924;83;21156;-85
2021/01/14 17:49:04;;;;;;;66.27;27.70;;;;;;;-0.76;89.48;98615.94;4175610;83;21232;-84
2021/01/14 17:55:07;;;;;;;59.87;23.67;;;;;;;-0.80;89.47;98624.36;4180688;83;21355;-84
2021/01/14 18:01:09;;;;;;;66.10;26.50;;;;;;;-0.82;89.58;98625.78;4185774;83;21634;-84
2021/01/14 18:07:10;;;;;;;63.07;25.17;;;;;;;-0.82;89.57;98627.93;4184568;83;21205;-83
2021/01/14 18:13:13;;;;;;;61.57;27.27;;;;;;;-0.82;89.44;98640.02;4183969;83;21236;-84
2021/01/14 18:19:15;;;;;;;67.97;27.77;;;;;;;-0.82;89.56;98630.61;4185254;83;21237;-83
2021/01/14 18:25:17;;;;;;;68.07;29.33;;;;;;;-0.84;89.45;98634.70;4189005;83;21378;-83
2021/01/14 18:31:19;;;;;;;64.27;28.37;;;;;;;-0.85;89.53;98633.12;4198526;82;21351;-84
2021/01/14 18:37:21;;;;;;;66.00;28.43;;;;;;;-0.88;89.49;98635.89;4198976;82;21524;-84
2021/01/14 18:43:22;;;;;;;74.40;30.93;;;;;;;-0.90;89.48;98646.14;4204637;82;21668;-84
2021/01/14 18:49:24;;;;;;;80.33;31.47;;;;;;;-0.92;89.59;98646.19;4196456;82;21217;-84
2021/01/14 18:55:26;;;;;;;74.03;32.40;;;;;;;-0.92;89.63;98652.91;4196439;82;21748;-84
2021/01/14 19:01:27;;;;;;;81.13;31.93;;;;;;;-0.93;89.54;98652.67;4210699;82;21269;-84
2021/01/14 19:07:28;;;;;;;76.60;33.20;;;;;;;-0.99;89.53;98649.34;4205303;82;21177;-84
2021/01/14 19:13:30;;;;;;;74.37;32.97;;;;;;;-1.01;89.68;98655.56;4207250;82;21168;-84
2021/01/14 19:19:31;;;;;;;76.83;34.67;;;;;;;-1.01;89.66;98650.73;4206392;82;21236;-84
2021/01/14 19:25:33;;;;;;;82.87;35.57;;;;;;;-1.02;89.67;98661.25;4207395;82;21249;-84
2021/01/14 19:31:34;;;;;;;88.37;37.00;;;;;;;-1.03;89.71;98656.95;4193956;82;22070;-84
2021/01/14 19:37:40;;;;;;;85.50;36.90;;;;;;;-1.04;89.68;98658.87;4191980;82;21278;-85
2021/01/14 19:43:42;;;;;;;88.75;34.45;;;;;;;-1.04;89.79;98659.41;4210413;82;21229;-84
2021/01/14 19:49:43;;;;;;;87.19;34.51;;;;;;;-1.05;89.76;98669.35;4089970;82;9999637;-84
2021/01/14 19:55:45;;;;;;;88.73;37.70;;;;;;;-1.08;89.72;98675.34;4202188;82;21208;-83
2021/01/14 20:01:47;;;;;;;80.23;33.03;;;;;;;-1.11;89.86;98669.23;4198031;82;21369;-84
2021/01/14 20:07:48;;;;;;;74.53;31.90;;;;;;;-1.12;89.84;98686.47;4198680;82;21204;-83
2021/01/14 20:13:50;;;;;;;80.17;31.70;;;;;;;-1.09;89.92;98682.36;4196808;82;21213;-85
2021/01/14 20:19:52;;;;;;;75.03;33.47;;;;;;;-1.10;89.85;98690.99;4196046;82;21366;-84
2021/01/14 20:25:53;;;;;;;81.57;34.37;;;;;;;-1.09;89.79;98689.08;4201023;82;21344;-84
2021/01/14 20:32:00;;;;;;;73.60;29.87;;;;;;;-1.10;89.94;98693.67;4178054;83;21250;-84
2021/01/14 20:38:00;;;;;;;76.67;33.10;;;;;;;-1.11;89.88;98700.13;4185345;83;21130;-84
2021/01/14 20:44:02;;;;;;;76.63;33.20;;;;;;;-1.11;89.91;98697.44;4180906;83;21363;-84
2021/01/14 20:50:05;;;;;;;77.37;32.13;;;;;;;-1.14;89.97;98702.66;4170663;83;21149;-84
2021/01/14 20:56:14;;;;;;;81.10;34.50;;;;;;;-1.12;89.97;98705.81;4186979;83;21249;-83
2021/01/14 21:02:16;;;;;;;82.57;33.50;;;;;;;-1.11;90.08;98705.50;4159263;83;21237;-84
2021/01/14 21:08:18;;;;;;;76.97;33.83;;;;;;;-1.12;89.97;98717.36;4151094;84;21663;-84
2021/01/14 21:14:19;;;;;;;76.93;32.07;;;;;;;-1.09;90.03;98711.38;4217672;83;21794;-82
2021/01/14 21:20:21;;;;;;;74.30;32.10;;;;;;;-1.09;90.06;98714.06;4218338;83;21552;-83
2021/01/14 21:26:24;;;;;;;75.37;32.70;;;;;;;-1.12;90.10;98707.95;4214494;82;21211;-82
2021/01/14 21:32:25;;;;;;;75.90;33.20;;;;;;;-1.16;90.19;98710.22;4181318;83;22417;-82
2021/01/14 21:38:27;;;;;;;51.53;20.23;;;;;;;-1.17;90.29;98718.81;4180308;83;21359;-83
2021/01/14 21:44:28;;;;;;;49.97;21.43;;;;;;;-1.21;89.90;98716.51;4193315;83;21173;-84
2021/01/14 21:50:30;;;;;;;35.20;15.47;;;;;;;-1.30;89.76;98717.54;4158397;83;21209;-83
2021/01/14 21:56:35;;;;;;;32.00;14.00;;;;;;;-1.39;89.39;98719.37;4174837;83;21379;-83
2021/01/14 22:02:37;;;;;;;32.20;14.23;;;;;;;-1.48;89.37;98716.59;4164283;83;21716;-83
2021/01/14 22:08:38;;;;;;;33.93;14.73;;;;;;;-1.52;89.19;98722.88;4164131;83;21662;-84
2021/01/14 22:14:40;;;;;;;29.27;13.03;;;;;;;-1.58;88.95;98714.13;4160612;83;21178;-84
2021/01/14 22:20:41;;;;;;;28.20;13.77;;;;;;;-1.62;88.89;98726.58;4162522;83;21205;-84
2021/01/14 22:26:44;;;;;;;30.33;14.20;;;;;;;-1.66;88.64;98737.12;4183292;82;21169;-84
2021/01/14 22:32:45;;;;;;;31.50;14.53;;;;;;;-1.64;88.96;98738.96;4193125;82;21188;-84
2021/01/14 22:38:48;;;;;;;34.23;17.87;;;;;;;-1.61;88.87;98749.63;4208471;82;21213;-84
2021/01/14 22:44:49;;;;;;;34.37;15.43;;;;;;;-1.63;88.59;98757.21;4203677;82;21197;-84
2021/01/14 22:50:51;;;;;;;30.83;14.17;;;;;;;-1.67;88.60;98748.95;4197374;82;21841;-84
2021/01/14 22:56:52;;;;;;;39.20;16.93;;;;;;;-1.65;88.99;98746.78;4213155;82;21369;-84
2021/01/14 23:02:54;;;;;;;47.73;17.67;;;;;;;-1.62;88.96;98736.78;4201434;82;21204;-83
2021/01/14 23:08:56;;;;;;;39.00;17.60;;;;;;;-1.62;88.75;98744.02;4203286;82;21237;-84
2021/01/14 23:15:08;;;;;;;33.93;17.10;;;;;;;-1.71;88.67;98746.61;4197371;82;21161;-83
2021/01/14 23:21:10;;;;;;;39.70;17.80;;;;;;;-1.69;88.78;98757.84;4201961;82;21355;-83
2021/01/14 23:27:11;;;;;;;44.90;19.60;;;;;;;-1.63;88.79;98765.27;4195127;82;21221;-83
2021/01/14 23:33:13;;;;;;;41.37;19.73;;;;;;;-1.63;88.68;98761.23;4156056;83;21245;-84
2021/01/14 23:39:14;;;;;;;44.60;21.43;;;;;;;-1.62;88.58;98771.67;4169105;83;21207;-83
2021/01/14 23:45:16;;;;;;;44.23;19.83;;;;;;;-1.58;88.85;98777.78;4162062;83;21707;-84
2021/01/14 23:51:20;;;;;;;45.63;19.13;;;;;;;-1.57;88.70;98782.84;4164431;83;22052;-83
2021/01/14 23:57:22;;;;;;;41.50;20.30;;;;;;;-1.60;88.60;98788.25;4171111;83;21679;-84
